Time;durP1;ratioP1;P1;durP2;ratioP2;P2;SDS_P1;SDS_P2;PMS_P1;PMS_P2;Temp;Humidity;BMP_temperature;BMP_pressure;BME280_temperature;BME280_humidity;BME280_pressure;Samples;Min_cycle;Max_cycle;Signal;HPM_P1;HPM_P2
2021/12/30 00:00:16;;;;;;;26.33;19.17;;;0.10;77.80;;;;;;5080955;28;20028;-54
2021/12/30 00:02:42;;;;;;;25.88;18.65;;;0.10;77.70;;;;;;5083761;28;20380;-55
2021/12/30 00:05:08;;;;;;;28.10;19.52;;;0.10;77.70;;;;;;5083316;28;20025;-57
2021/12/30 00:07:35;;;;;;;26.52;18.60;;;0.10;77.80;;;;;;5075097;28;20031;-55
2021/12/30 00:10:00;;;;;;;27.65;18.50;;;0.10;77.80;;;;;;5074657;28;20020;-52
2021/12/30 00:12:26;;;;;;;28.08;17.85;;;0.10;77.70;;;;;;5079444;28;20086;-53
2021/12/30 00:14:52;;;;;;;24.98;18.33;;;0.10;77.70;;;;;;5078138;28;20111;-56
2021/12/30 00:17:17;;;;;;;24.15;17.45;;;0.10;77.70;;;;;;5079062;28;20025;-56
2021/12/30 00:19:43;;;;;;;25.40;17.40;;;0.10;77.70;;;;;;5075095;28;20495;-55
2021/12/30 00:22:09;;;;;;;24.60;17.90;;;0.10;77.80;;;;;;5076684;28;20021;-53
2021/12/30 00:24:35;;;;;;;24.00;17.05;;;0.10;77.80;;;;;;5086154;28;20048;-53
2021/12/30 00:27:01;;;;;;;27.88;18.85;;;0.10;77.80;;;;;;5088783;28;20078;-57
2021/12/30 00:29:27;;;;;;;29.00;18.65;;;0.10;77.80;;;;;;5088829;28;20028;-56
2021/12/30 00:31:53;;;;;;;23.02;16.88;;;0.10;77.80;;;;;;5083072;28;20029;-54
2021/12/30 00:34:18;;;;;;;28.35;19.42;;;0.10;77.70;;;;;;5077718;28;20027;-54
2021/12/30 00:36:44;;;;;;;22.30;16.70;;;0.10;77.60;;;;;;5075782;28;20027;-56
2021/12/30 00:39:10;;;;;;;23.10;17.50;;;0.10;77.70;;;;;;5088236;28;20032;-56
2021/12/30 00:41:37;;;;;;;27.30;18.40;;;0.10;78.30;;;;;;5079571;28;20365;-57
2021/12/30 00:44:03;;;;;;;25.20;18.25;;;0.20;77.70;;;;;;5084988;28;20486;-55
2021/12/30 00:46:29;;;;;;;25.45;18.30;;;0.10;77.60;;;;;;5092943;28;20091;-56
2021/12/30 00:48:55;;;;;;;25.10;18.98;;;0.20;77.60;;;;;;5088145;28;20107;-57
2021/12/30 00:51:20;;;;;;;29.38;19.25;;;0.10;77.60;;;;;;5087782;28;20021;-53
2021/12/30 00:53:46;;;;;;;30.67;21.35;;;0.20;77.70;;;;;;5076524;28;20095;-55
2021/12/30 00:56:12;;;;;;;28.38;19.23;;;0.20;77.70;;;;;;5076643;28;20067;-56
2021/12/30 00:58:37;;;;;;;28.15;19.63;;;0.20;77.70;;;;;;5079492;28;20445;-55
2021/12/30 01:01:04;;;;;;;26.38;18.77;;;0.20;77.70;;;;;;5073078;28;20431;-55
2021/12/30 01:03:31;;;;;;;27.10;19.48;;;0.20;77.80;;;;;;5080218;28;20040;-55
2021/12/30 01:05:57;;;;;;;27.40;19.13;;;0.20;77.70;;;;;;5084112;28;20032;-53
2021/12/30 01:08:24;;;;;;;23.40;17.85;;;0.20;77.60;;;;;;5079351;28;20021;-52
2021/12/30 01:10:50;;;;;;;25.48;18.42;;;0.20;77.50;;;;;;5074319;28;20032;-52
2021/12/30 01:13:24;;;;;;;25.75;17.48;;;0.20;77.50;;;;;;5077757;28;20042;-53
2021/12/30 01:18:54;;;;;;;27.33;19.27;;;0.20;77.50;;;;;;5077230;28;20023;-56
2021/12/30 01:21:24;;;;;;;23.77;17.88;;;0.20;77.50;;;;;;5085969;28;20028;-56
2021/12/30 01:23:50;;;;;;;28.38;19.55;;;0.20;77.60;;;;;;5089561;28;20052;-56
2021/12/30 01:26:16;;;;;;;28.15;20.70;;;0.20;77.50;;;;;;5072427;28;20082;-57
2021/12/30 01:28:42;;;;;;;31.33;19.63;;;0.20;77.60;;;;;;5087080;28;20020;-55
2021/12/30 01:31:10;;;;;;;26.65;18.52;;;0.20;77.50;;;;;;5075611;28;20048;-56
2021/12/30 01:33:38;;;;;;;27.23;19.90;;;0.20;77.50;;;;;;5090433;28;20063;-56
2021/12/30 01:36:04;;;;;;;26.45;19.30;;;0.30;77.60;;;;;;5078495;28;20064;-57
2021/12/30 01:38:30;;;;;;;29.88;20.17;;;0.20;77.50;;;;;;5076297;28;20082;-53
2021/12/30 01:41:00;;;;;;;24.98;18.40;;;0.30;77.50;;;;;;5076117;28;20048;-55
2021/12/30 01:43:26;;;;;;;28.92;18.92;;;0.30;77.40;;;;;;5074244;28;20019;-57
2021/12/30 01:45:52;;;;;;;27.85;19.65;;;0.30;77.40;;;;;;5080409;28;20379;-54
2021/12/30 01:48:17;;;;;;;29.40;19.67;;;0.20;77.40;;;;;;5074069;28;20038;-54
2021/12/30 01:50:44;;;;;;;26.38;18.30;;;0.30;77.50;;;;;;5086986;28;20031;-57
2021/12/30 01:53:10;;;;;;;26.92;17.83;;;0.30;77.50;;;;;;5076681;28;20032;-57
2021/12/30 01:55:39;;;;;;;26.35;19.15;;;0.30;77.40;;;;;;5084014;28;20120;-55
2021/12/30 01:58:05;;;;;;;29.48;19.50;;;0.30;77.40;;;;;;5079517;28;20025;-55
2021/12/30 02:00:32;;;;;;;24.23;16.85;;;0.30;77.40;;;;;;5085527;28;20023;-56
2021/12/30 02:02:58;;;;;;;27.20;17.95;;;0.30;77.50;;;;;;5082306;28;20060;-55
2021/12/30 02:05:24;;;;;;;24.23;16.80;;;0.30;77.50;;;;;;5084666;28;20044;-56
2021/12/30 02:07:50;;;;;;;23.33;16.13;;;0.30;77.50;;;;;;5082607;28;20035;-56
2021/12/30 02:10:16;;;;;;;23.90;17.83;;;0.30;77.50;;;;;;5082194;28;20016;-57
2021/12/30 02:12:43;;;;;;;26.00;17.83;;;0.30;77.50;;;;;;5082617;28;20081;-57
2021/12/30 02:15:11;;;;;;;27.55;17.98;;;0.30;77.40;;;;;;5076753;28;20480;-54
2021/12/30 02:17:37;;;;;;;26.15;17.02;;;0.30;77.40;;;;;;5087260;28;20028;-56
2021/12/30 02:20:07;;;;;;;27.10;17.98;;;0.30;77.40;;;;;;5087272;28;20430;-53
2021/12/30 02:22:33;;;;;;;24.17;17.30;;;0.30;77.50;;;;;;5079437;28;20028;-56
2021/12/30 02:24:59;;;;;;;25.55;18.33;;;0.30;77.50;;;;;;5079611;28;20464;-57
2021/12/30 02:27:27;;;;;;;27.25;18.35;;;0.30;77.50;;;;;;5081458;28;20486;-53
2021/12/30 02:29:53;;;;;;;26.30;19.23;;;0.30;77.50;;;;;;5082162;28;20035;-56
2021/12/30 02:32:21;;;;;;;28.42;19.02;;;0.30;77.50;;;;;;5082561;28;20032;-55
2021/12/30 02:34:47;;;;;;;27.83;19.52;;;0.30;77.50;;;;;;5082514;28;20033;-55
2021/12/30 02:37:17;;;;;;;30.75;19.00;;;0.30;77.40;;;;;;5083360;28;20055;-56
2021/12/30 02:39:48;;;;;;;29.70;20.02;;;0.40;77.50;;;;;;5088410;28;20521;-56
2021/12/30 02:42:14;;;;;;;26.83;18.55;;;0.30;77.40;;;;;;5088543;28;20103;-56
2021/12/30 02:44:39;;;;;;;29.98;20.25;;;0.30;77.40;;;;;;5087044;28;20071;-57
2021/12/30 02:47:05;;;;;;;32.10;19.65;;;0.30;77.40;;;;;;5076180;28;20020;-56
2021/12/30 02:49:31;;;;;;;27.42;20.63;;;0.40;77.50;;;;;;5080221;28;20024;-55
2021/12/30 02:51:56;;;;;;;28.20;19.27;;;0.30;77.40;;;;;;5081893;28;20031;-57
2021/12/30 02:54:22;;;;;;;29.65;19.92;;;0.40;78.10;;;;;;5079230;28;20021;-55
2021/12/30 02:56:48;;;;;;;29.60;20.83;;;0.30;77.50;;;;;;5084849;28;20024;-55
2021/12/30 02:59:16;;;;;;;26.10;19.33;;;0.30;77.40;;;;;;5080403;28;20032;-56
2021/12/30 03:01:41;;;;;;;28.77;19.08;;;0.30;77.50;;;;;;5080673;28;20020;-55
2021/12/30 03:04:07;;;;;;;29.92;20.98;;;0.30;77.50;;;;;;5085475;28;20464;-56
2021/12/30 03:06:34;;;;;;;28.30;20.25;;;0.40;77.50;;;;;;5079259;28;20111;-53
2021/12/30 03:09:00;;;;;;;27.45;18.95;;;0.30;77.40;;;;;;5093511;28;20353;-54
2021/12/30 03:11:27;;;;;;;26.23;19.05;;;0.30;77.40;;;;;;5077804;28;20020;-55
2021/12/30 03:13:54;;;;;;;29.20;19.60;;;0.30;77.40;;;;;;5084140;28;20020;-55
2021/12/30 03:16:22;;;;;;;29.05;19.50;;;0.40;77.40;;;;;;5093091;28;20388;-55
2021/12/30 03:18:50;;;;;;;27.67;18.48;;;0.40;77.50;;;;;;5082794;28;20107;-57
2021/12/30 03:21:19;;;;;;;30.83;20.73;;;0.40;77.50;;;;;;5078726;28;20020;-56
2021/12/30 03:23:44;;;;;;;27.67;19.83;;;0.40;77.50;;;;;;5075776;28;20040;-57
2021/12/30 03:26:11;;;;;;;28.73;19.45;;;0.40;77.50;;;;;;5086862;28;20169;-54
2021/12/30 03:28:40;;;;;;;30.17;19.40;;;0.40;77.50;;;;;;5078226;28;20033;-54
2021/12/30 03:31:07;;;;;;;25.83;19.25;;;0.40;77.50;;;;;;5078860;28;20403;-57
2021/12/30 03:33:32;;;;;;;28.95;20.40;;;0.40;77.50;;;;;;5078207;28;20029;-54
2021/12/30 03:36:00;;;;;;;27.25;18.60;;;0.40;77.20;;;;;;5075307;28;20543;-54
2021/12/30 03:38:31;;;;;;;27.92;19.95;;;0.40;77.30;;;;;;5089905;28;20016;-57
2021/12/30 03:40:58;;;;;;;25.15;18.15;;;0.40;77.30;;;;;;5079583;28;20032;-56
2021/12/30 03:43:24;;;;;;;27.33;19.23;;;0.40;77.30;;;;;;5081057;28;20028;-53
2021/12/30 03:45:50;;;;;;;26.58;17.80;;;0.40;77.30;;;;;;5085415;28;20090;-57
2021/12/30 03:48:16;;;;;;;28.80;18.80;;;0.40;77.40;;;;;;5079990;28;20024;-56
2021/12/30 03:50:45;;;;;;;26.45;19.23;;;0.40;77.30;;;;;;5087822;28;20028;-52
2021/12/30 03:53:13;;;;;;;28.50;19.40;;;0.40;77.40;;;;;;5079034;28;20029;-54
2021/12/30 03:55:39;;;;;;;27.70;18.65;;;0.40;77.40;;;;;;5083287;28;20101;-55
2021/12/30 03:58:05;;;;;;;27.75;19.10;;;0.40;77.50;;;;;;5075041;28;20028;-57
2021/12/30 04:00:33;;;;;;;27.42;18.58;;;0.40;77.40;;;;;;5088658;28;20020;-57
2021/12/30 04:02:58;;;;;;;28.88;19.60;;;0.40;77.30;;;;;;5088877;28;20111;-57
2021/12/30 04:05:25;;;;;;;26.90;20.27;;;0.40;77.30;;;;;;5077218;28;20052;-57
2021/12/30 04:07:51;;;;;;;26.40;18.67;;;0.40;77.20;;;;;;5082201;28;20031;-56
2021/12/30 04:10:21;;;;;;;27.70;19.35;;;0.40;77.30;;;;;;5079000;28;20029;-53
2021/12/30 04:12:47;;;;;;;29.02;20.30;;;0.40;77.20;;;;;;5076820;28;20111;-54
2021/12/30 04:15:13;;;;;;;26.60;19.35;;;0.40;77.20;;;;;;5086606;28;20111;-57
2021/12/30 04:17:39;;;;;;;27.65;19.45;;;0.40;77.20;;;;;;5079880;28;20267;-56
2021/12/30 04:20:08;;;;;;;27.65;19.75;;;0.40;77.30;;;;;;5077948;28;20064;-54
2021/12/30 04:22:35;;;;;;;28.10;19.65;;;0.40;77.20;;;;;;5074351;28;20502;-52
2021/12/30 04:25:02;;;;;;;32.85;21.92;;;0.40;77.20;;;;;;5090262;28;20028;-56
2021/12/30 04:27:28;;;;;;;28.92;19.25;;;0.40;77.20;;;;;;5088175;28;20028;-56
2021/12/30 04:29:53;;;;;;;31.98;20.58;;;0.40;77.30;;;;;;5083343;28;20365;-55
2021/12/30 04:32:19;;;;;;;29.52;19.23;;;0.40;77.20;;;;;;5078987;28;20082;-55
2021/12/30 04:34:45;;;;;;;28.52;19.58;;;0.40;77.30;;;;;;5086404;28;20101;-54
2021/12/30 04:37:10;;;;;;;28.35;19.55;;;0.40;77.30;;;;;;5079587;28;20046;-54
2021/12/30 04:39:36;;;;;;;25.92;19.77;;;0.40;77.20;;;;;;5080942;28;20031;-56
2021/12/30 04:42:02;;;;;;;28.17;18.63;;;0.40;77.40;;;;;;5084026;28;20020;-56
2021/12/30 04:44:29;;;;;;;24.80;19.00;;;0.40;77.40;;;;;;5083208;28;20043;-55
2021/12/30 04:46:56;;;;;;;30.35;20.60;;;0.40;77.50;;;;;;5082585;28;20029;-56
2021/12/30 04:49:22;;;;;;;29.42;19.92;;;0.40;77.30;;;;;;5075697;28;20538;-54
2021/12/30 04:51:48;;;;;;;26.80;18.45;;;0.40;77.30;;;;;;5074975;28;20361;-56
2021/12/30 04:54:13;;;;;;;28.35;18.85;;;0.40;77.30;;;;;;5072820;28;20020;-57
2021/12/30 04:56:39;;;;;;;28.05;19.40;;;0.40;77.40;;;;;;5073838;28;20028;-55
2021/12/30 04:59:04;;;;;;;27.23;18.63;;;0.40;77.40;;;;;;5079520;28;20028;-52
2021/12/30 05:01:30;;;;;;;29.70;20.25;;;0.40;77.50;;;;;;5088947;28;20104;-55
2021/12/30 05:03:56;;;;;;;28.92;20.10;;;0.40;77.40;;;;;;5079040;28;20040;-54
2021/12/30 05:06:21;;;;;;;26.95;19.20;;;0.40;77.50;;;;;;5081531;28;20031;-52
2021/12/30 05:08:47;;;;;;;28.25;20.88;;;0.40;77.50;;;;;;5079944;28;20052;-56
2021/12/30 05:11:13;;;;;;;30.60;20.40;;;0.40;77.60;;;;;;5087302;28;20451;-57
2021/12/30 05:13:39;;;;;;;26.25;20.05;;;0.40;77.50;;;;;;5083928;28;20032;-57
2021/12/30 05:16:05;;;;;;;30.27;20.42;;;0.40;77.40;;;;;;5080297;28;20055;-53
2021/12/30 05:18:33;;;;;;;27.42;20.30;;;0.40;77.30;;;;;;5088282;28;20150;-54
2021/12/30 05:21:04;;;;;;;29.98;21.42;;;0.40;77.30;;;;;;5080469;28;20066;-55
2021/12/30 05:23:29;;;;;;;29.05;20.70;;;0.40;77.30;;;;;;5079459;28;20055;-57
2021/12/30 05:25:56;;;;;;;28.65;21.27;;;0.40;77.50;;;;;;5082900;28;20029;-57
2021/12/30 05:28:22;;;;;;;27.27;19.33;;;0.40;77.50;;;;;;5076329;28;20059;-55
2021/12/30 05:30:48;;;;;;;30.70;20.35;;;0.40;77.50;;;;;;5073914;28;20024;-55
2021/12/30 05:33:14;;;;;;;30.10;20.45;;;0.40;77.50;;;;;;5073627;28;20472;-52
2021/12/30 05:35:40;;;;;;;29.92;20.13;;;0.40;77.40;;;;;;5090963;28;20127;-53
2021/12/30 05:38:05;;;;;;;32.38;22.27;;;0.50;77.60;;;;;;5085038;28;20427;-56
2021/12/30 05:40:32;;;;;;;33.58;23.27;;;0.50;77.60;;;;;;5078130;28;20021;-56
2021/12/30 05:42:58;;;;;;;38.35;25.35;;;0.40;77.60;;;;;;5083970;28;20020;-54
2021/12/30 05:45:26;;;;;;;33.72;24.17;;;0.40;77.50;;;;;;5083454;28;20031;-57
2021/12/30 05:47:53;;;;;;;32.10;23.48;;;0.40;77.60;;;;;;5081669;28;20101;-54
2021/12/30 05:50:22;;;;;;;36.35;24.80;;;0.50;77.30;;;;;;5077676;28;20037;-56
2021/12/30 05:52:48;;;;;;;32.92;22.33;;;0.40;77.20;;;;;;5075752;28;20108;-56
2021/12/30 05:55:15;;;;;;;27.67;20.83;;;0.50;77.20;;;;;;5087061;28;20020;-57
2021/12/30 05:57:42;;;;;;;33.50;21.27;;;0.50;77.30;;;;;;5079325;28;20077;-55
2021/12/30 06:00:12;;;;;;;31.58;22.13;;;0.50;77.30;;;;;;5077910;28;20025;-57
2021/12/30 06:02:37;;;;;;;31.58;22.13;;;0.50;77.20;;;;;;5072236;28;20028;-56
2021/12/30 06:05:05;;;;;;;28.33;20.42;;;0.50;77.30;;;;;;5073787;28;20051;-58
2021/12/30 06:07:31;;;;;;;30.40;21.42;;;0.50;77.00;;;;;;5079322;28;20027;-58
2021/12/30 06:09:57;;;;;;;33.17;22.63;;;0.50;76.70;;;;;;5077545;28;20516;-58
2021/12/30 06:12:23;;;;;;;33.83;22.05;;;0.50;76.50;;;;;;5076688;28;20107;-55
2021/12/30 06:14:48;;;;;;;32.67;23.25;;;0.50;76.60;;;;;;5073988;28;20032;-52
2021/12/30 06:17:15;;;;;;;32.50;23.23;;;0.50;76.60;;;;;;5079439;28;20472;-53
2021/12/30 06:19:44;;;;;;;35.55;25.17;;;0.50;76.60;;;;;;5082652;28;20089;-56
2021/12/30 06:22:11;;;;;;;37.65;24.55;;;0.50;76.70;;;;;;5077336;28;20453;-53
2021/12/30 06:24:37;;;;;;;34.67;24.65;;;0.50;76.80;;;;;;5078308;28;20051;-56
2021/12/30 06:27:03;;;;;;;34.28;23.55;;;0.40;76.70;;;;;;5086276;28;20479;-56
2021/12/30 06:29:28;;;;;;;34.40;23.92;;;0.40;76.80;;;;;;5084023;28;20040;-56
2021/12/30 06:31:54;;;;;;;33.33;23.25;;;0.40;76.90;;;;;;5084493;28;20051;-56
2021/12/30 06:34:20;;;;;;;32.88;22.95;;;0.40;77.00;;;;;;5081575;28;20060;-54
2021/12/30 06:36:45;;;;;;;33.42;24.23;;;0.40;76.90;;;;;;5082460;28;20056;-54
2021/12/30 06:39:11;;;;;;;34.42;24.27;;;0.40;77.00;;;;;;5086393;28;20054;-54
2021/12/30 06:41:37;;;;;;;32.35;23.23;;;0.30;77.00;;;;;;5082466;28;20024;-53
2021/12/30 06:44:03;;;;;;;33.65;22.88;;;0.30;77.20;;;;;;5085196;28;20035;-54
2021/12/30 06:46:29;;;;;;;32.78;23.50;;;0.30;77.30;;;;;;5078251;28;20095;-53
2021/12/30 06:48:55;;;;;;;34.15;22.92;;;0.40;77.40;;;;;;5083660;28;20487;-54
2021/12/30 06:51:23;;;;;;;32.30;22.20;;;0.30;77.40;;;;;;5080321;28;20035;-53
2021/12/30 06:53:51;;;;;;;30.92;21.63;;;0.40;77.30;;;;;;5081758;28;20372;-55
2021/12/30 06:56:19;;;;;;;30.55;21.33;;;0.40;77.40;;;;;;5078494;28;20469;-55
2021/12/30 06:58:44;;;;;;;29.08;20.92;;;0.40;77.40;;;;;;5077378;28;20420;-56
2021/12/30 07:01:10;;;;;;;32.58;22.27;;;0.40;77.50;;;;;;5080932;28;20171;-55
2021/12/30 07:03:36;;;;;;;30.58;21.55;;;0.40;77.50;;;;;;5078779;28;20471;-56
2021/12/30 07:06:01;;;;;;;33.83;21.85;;;0.40;77.50;;;;;;5086166;28;20108;-57
2021/12/30 07:08:27;;;;;;;28.92;20.58;;;0.40;77.50;;;;;;5077185;28;20028;-57
2021/12/30 07:10:53;;;;;;;28.85;20.40;;;0.50;77.50;;;;;;5078097;28;20376;-56
2021/12/30 07:13:18;;;;;;;29.50;20.80;;;0.50;77.40;;;;;;5079618;28;20032;-55
2021/12/30 07:15:44;;;;;;;28.02;20.42;;;0.60;77.30;;;;;;5077959;28;20123;-53
2021/12/30 07:18:10;;;;;;;30.73;21.10;;;0.60;77.30;;;;;;5076607;28;20109;-53
2021/12/30 07:20:35;;;;;;;30.55;22.45;;;0.60;77.30;;;;;;5083099;28;20078;-57
2021/12/30 07:23:01;;;;;;;31.52;20.95;;;0.70;77.30;;;;;;5080737;28;20044;-58
2021/12/30 07:25:27;;;;;;;31.08;22.10;;;0.70;77.20;;;;;;5074473;28;20051;-54
2021/12/30 07:27:54;;;;;;;32.75;22.80;;;0.80;77.10;;;;;;5076624;28;20095;-54
2021/12/30 07:30:22;;;;;;;32.60;23.75;;;0.80;76.90;;;;;;5081343;28;20107;-56
2021/12/30 07:32:48;;;;;;;31.13;22.08;;;0.80;76.90;;;;;;5075878;28;20032;-57
2021/12/30 07:35:16;;;;;;;32.30;21.90;;;0.90;77.00;;;;;;5076950;28;20032;-55
2021/12/30 07:37:42;;;;;;;29.50;21.13;;;0.90;76.80;;;;;;5075359;28;20111;-55
2021/12/30 07:40:09;;;;;;;31.80;21.45;;;0.90;76.70;;;;;;5075873;28;20028;-55
2021/12/30 07:42:35;;;;;;;37.22;22.38;;;1.00;76.50;;;;;;5074265;28;20055;-56
2021/12/30 07:45:01;;;;;;;31.50;23.08;;;1.00;76.50;;;;;;5072910;28;20085;-58
2021/12/30 07:47:26;;;;;;;30.42;22.13;;;1.00;76.30;;;;;;5072718;28;20024;-55
2021/12/30 07:49:52;;;;;;;34.08;22.83;;;1.10;76.30;;;;;;5075993;28;20433;-57
2021/12/30 07:52:18;;;;;;;36.45;25.17;;;1.10;76.20;;;;;;5074671;28;20052;-58
2021/12/30 07:54:44;;;;;;;32.17;23.45;;;1.10;76.10;;;;;;5068762;28;20036;-56
2021/12/30 07:57:20;;;;;;;32.20;23.02;;;1.10;75.80;;;;;;5068232;28;20039;-57
2021/12/30 07:59:47;;;;;;;32.63;22.77;;;1.20;76.00;;;;;;5068064;28;20039;-58
2021/12/30 08:02:13;;;;;;;33.28;23.38;;;1.30;76.20;;;;;;5064417;28;20428;-58
2021/12/30 08:04:39;;;;;;;31.75;22.92;;;1.30;76.10;;;;;;5076924;28;20114;-58
2021/12/30 08:07:05;;;;;;;35.20;22.80;;;1.40;76.10;;;;;;5074378;28;20036;-57
2021/12/30 08:09:31;;;;;;;29.48;22.08;;;1.50;76.10;;;;;;5072256;28;20067;-59
2021/12/30 08:11:56;;;;;;;33.80;22.95;;;1.50;75.70;;;;;;5074100;28;20036;-56
2021/12/30 08:14:22;;;;;;;33.28;24.35;;;1.60;75.60;;;;;;5071851;28;20036;-58
2021/12/30 08:16:48;;;;;;;34.88;23.30;;;1.70;75.60;;;;;;5074010;28;20027;-58
2021/12/30 08:19:13;;;;;;;34.63;23.77;;;1.70;75.40;;;;;;5072567;28;20016;-59
2021/12/30 08:21:42;;;;;;;32.58;22.63;;;1.80;75.20;;;;;;5062579;28;20028;-59
2021/12/30 08:24:11;;;;;;;32.45;22.30;;;1.80;75.10;;;;;;5065085;28;20071;-57
2021/12/30 08:26:37;;;;;;;30.67;22.92;;;1.80;74.90;;;;;;5061018;28;20117;-58
2021/12/30 08:29:03;;;;;;;29.98;21.25;;;1.90;74.60;;;;;;5065368;28;20037;-58
2021/12/30 08:31:29;;;;;;;35.30;22.92;;;1.90;74.60;;;;;;5068750;28;20115;-57
2021/12/30 08:33:55;;;;;;;32.22;21.52;;;1.90;74.50;;;;;;5069090;28;20046;-58
2021/12/30 08:36:21;;;;;;;29.48;21.20;;;1.90;74.60;;;;;;5069278;28;20143;-58
2021/12/30 08:38:47;;;;;;;32.20;21.67;;;1.90;74.40;;;;;;5068826;28;20040;-57
2021/12/30 08:41:12;;;;;;;29.00;20.40;;;1.90;74.30;;;;;;5067394;28;20487;-59
2021/12/30 08:43:38;;;;;;;30.30;20.60;;;1.90;74.30;;;;;;5064362;28;20032;-57
2021/12/30 08:46:04;;;;;;;28.27;19.75;;;1.90;74.30;;;;;;5067788;28;20036;-57
2021/12/30 08:48:30;;;;;;;32.38;20.85;;;1.90;74.30;;;;;;5065103;28;20043;-57
2021/12/30 08:50:56;;;;;;;32.40;21.58;;;1.90;74.30;;;;;;5063344;28;20028;-58
2021/12/30 08:53:25;;;;;;;30.55;22.08;;;1.90;74.30;;;;;;5066646;28;20458;-57
2021/12/30 08:55:51;;;;;;;31.85;22.10;;;1.90;74.30;;;;;;5057197;28;20747;-58
2021/12/30 08:58:17;;;;;;;29.15;20.20;;;1.90;74.40;;;;;;5061372;28;20064;-57
2021/12/30 09:00:46;;;;;;;29.30;21.15;;;1.90;74.40;;;;;;5068600;28;20032;-59
2021/12/30 09:03:12;;;;;;;30.80;21.13;;;1.90;74.20;;;;;;5066759;28;20029;-57
2021/12/30 09:05:38;;;;;;;29.73;20.00;;;1.90;74.20;;;;;;5069657;28;20032;-58
2021/12/30 09:08:04;;;;;;;30.15;20.73;;;1.90;74.10;;;;;;5066276;28;20032;-57
2021/12/30 09:10:34;;;;;;;30.88;19.67;;;1.90;74.00;;;;;;5061227;28;20068;-58
2021/12/30 09:13:01;;;;;;;25.83;18.08;;;1.90;73.90;;;;;;5066349;28;20040;-57
2021/12/30 09:15:27;;;;;;;30.83;19.50;;;2.00;74.10;;;;;;5061195;28;20161;-57
2021/12/30 09:17:54;;;;;;;29.17;19.38;;;2.00;74.10;;;;;;5061881;28;20031;-58
2021/12/30 09:20:20;;;;;;;29.80;19.83;;;2.00;73.90;;;;;;5064180;28;20031;-57
2021/12/30 09:22:46;;;;;;;24.23;18.65;;;2.00;74.00;;;;;;5063261;28;20044;-56
2021/12/30 09:25:12;;;;;;;30.13;20.05;;;2.00;73.90;;;;;;5068848;28;20512;-57
2021/12/30 09:27:40;;;;;;;27.13;19.77;;;2.00;73.90;;;;;;5067254;28;20047;-54
2021/12/30 09:30:17;;;;;;;25.20;18.65;;;2.00;73.90;;;;;;5062152;28;20146;-56
2021/12/30 09:32:44;;;;;;;31.65;20.95;;;2.00;73.80;;;;;;5057804;28;20063;-58
2021/12/30 09:35:11;;;;;;;26.88;18.95;;;2.00;73.90;;;;;;5063870;28;20035;-56
2021/12/30 09:37:37;;;;;;;27.80;18.58;;;2.00;73.80;;;;;;5061341;28;20637;-58
2021/12/30 09:40:04;;;;;;;29.10;20.58;;;2.10;73.90;;;;;;5064399;28;21835;-57
2021/12/30 09:42:31;;;;;;;30.50;20.70;;;2.10;73.80;;;;;;5066389;28;20016;-58
2021/12/30 09:44:56;;;;;;;28.80;19.63;;;2.10;73.60;;;;;;5064600;28;20040;-55
2021/12/30 09:47:22;;;;;;;30.58;19.33;;;2.20;73.60;;;;;;5065386;28;20032;-58
2021/12/30 09:49:50;;;;;;;30.73;20.17;;;2.20;73.50;;;;;;5064070;28;20067;-56
2021/12/30 09:52:16;;;;;;;32.42;21.23;;;2.20;73.40;;;;;;5059311;28;20070;-58
2021/12/30 09:54:42;;;;;;;28.27;19.83;;;2.20;73.20;;;;;;5061697;28;20032;-57
2021/12/30 09:57:08;;;;;;;28.33;20.58;;;2.20;73.30;;;;;;5069743;28;20024;-57
2021/12/30 09:59:34;;;;;;;28.25;19.55;;;2.20;73.30;;;;;;5067175;28;20047;-57
2021/12/30 10:02:00;;;;;;;29.83;20.75;;;2.30;73.30;;;;;;5072443;28;20042;-57
2021/12/30 10:04:32;;;;;;;25.95;19.02;;;2.30;73.00;;;;;;5070804;28;20111;-57
2021/12/30 10:06:58;;;;;;;30.58;20.45;;;2.30;72.90;;;;;;5067323;28;20104;-55
2021/12/30 10:09:59;;;;;;;28.50;20.23;;;2.30;72.80;;;;;;5068771;28;20035;-58
2021/12/30 10:12:40;;;;;;;28.95;19.10;;;2.30;72.90;;;;;;5076328;28;20119;-57
2021/12/30 10:15:07;;;;;;;29.58;20.88;;;2.30;73.10;;;;;;5075678;28;20585;-54
2021/12/30 10:17:33;;;;;;;26.08;19.58;;;2.30;73.00;;;;;;5071685;28;20642;-58
2021/12/30 10:20:17;;;;;;;28.27;19.00;;;2.30;73.00;;;;;;5074310;28;20365;-57
2021/12/30 10:22:44;;;;;;;29.70;20.20;;;2.30;72.90;;;;;;5068513;28;20051;-58
2021/12/30 10:25:29;;;;;;;27.08;19.48;;;2.30;73.00;;;;;;5070327;28;20101;-59
2021/12/30 10:27:55;;;;;;;27.65;19.05;;;2.30;72.90;;;;;;5068025;28;20039;-58
2021/12/30 10:30:32;;;;;;;27.10;19.77;;;2.30;73.00;;;;;;5070456;28;20042;-58
2021/12/30 10:33:13;;;;;;;28.55;20.25;;;2.40;73.10;;;;;;5069159;28;20416;-56
2021/12/30 10:35:39;;;;;;;28.45;20.00;;;2.40;72.80;;;;;;5064423;28;20032;-59
2021/12/30 10:38:09;;;;;;;26.08;18.83;;;2.30;72.90;;;;;;5067803;28;20036;-57
2021/12/30 10:40:36;;;;;;;26.40;19.02;;;2.40;72.80;;;;;;5068360;28;20410;-57
2021/12/30 10:43:29;;;;;;;28.92;19.88;;;2.40;73.00;;;;;;5067205;28;20110;-57
2021/12/30 10:46:00;;;;;;;27.00;19.88;;;2.40;72.80;;;;;;5068964;28;20034;-59
2021/12/30 10:48:26;;;;;;;28.17;20.13;;;2.40;72.70;;;;;;5065444;28;20051;-56
2021/12/30 10:51:11;;;;;;;29.02;19.80;;;2.40;72.70;;;;;;5071708;28;20028;-56
2021/12/30 10:53:38;;;;;;;29.27;20.00;;;2.40;72.60;;;;;;5070327;28;23703;-55
2021/12/30 10:56:22;;;;;;;28.63;19.15;;;2.40;72.70;;;;;;5070444;28;20036;-55
2021/12/30 10:58:48;;;;;;;30.38;21.17;;;2.40;72.60;;;;;;5062834;28;20032;-57
2021/12/30 11:01:19;;;;;;;30.48;20.00;;;2.40;72.50;;;;;;5061612;28;20039;-58
2021/12/30 11:03:55;;;;;;;29.13;20.35;;;2.40;72.40;;;;;;5067481;28;20455;-56
2021/12/30 11:06:21;;;;;;;29.05;19.15;;;2.40;71.90;;;;;;5061052;28;20059;-58
2021/12/30 11:08:49;;;;;;;29.80;20.52;;;2.50;71.70;;;;;;5061201;28;20051;-58
2021/12/30 11:11:25;;;;;;;26.83;19.63;;;2.50;71.80;;;;;;5070422;28;20031;-56
2021/12/30 11:14:04;;;;;;;27.45;19.17;;;2.50;71.80;;;;;;5066437;28;20028;-56
2021/12/30 11:16:30;;;;;;;31.70;21.67;;;2.50;71.80;;;;;;5066521;28;20067;-57
2021/12/30 11:18:57;;;;;;;28.33;21.45;;;2.50;71.70;;;;;;5066488;28;20031;-56
2021/12/30 11:21:42;;;;;;;31.77;21.17;;;2.50;71.80;;;;;;5064201;28;20032;-55
2021/12/30 11:24:10;;;;;;;33.90;22.27;;;2.50;72.00;;;;;;5072870;28;20050;-56
2021/12/30 11:26:36;;;;;;;30.08;21.67;;;2.50;71.90;;;;;;5074941;28;20024;-57
2021/12/30 11:29:04;;;;;;;28.33;21.38;;;2.50;72.20;;;;;;5072818;28;20027;-53
2021/12/30 11:31:30;;;;;;;31.58;21.17;;;2.50;72.20;;;;;;5064470;28;20352;-57
2021/12/30 11:33:57;;;;;;;28.00;20.80;;;2.50;72.20;;;;;;5067455;28;20067;-56
2021/12/30 11:36:23;;;;;;;32.70;20.88;;;2.50;72.30;;;;;;5071190;28;20473;-56
2021/12/30 11:38:49;;;;;;;31.02;21.45;;;2.50;72.20;;;;;;5077183;28;20118;-54
2021/12/30 11:41:23;;;;;;;27.50;19.15;;;2.50;72.30;;;;;;5073315;28;20562;-54
2021/12/30 11:43:49;;;;;;;29.80;21.38;;;2.50;71.90;;;;;;5072250;28;20035;-57
2021/12/30 11:46:37;;;;;;;31.80;21.13;;;2.50;71.90;;;;;;5076170;28;20058;-55
2021/12/30 11:49:04;;;;;;;30.90;22.15;;;2.50;72.00;;;;;;5075206;28;20885;-56
2021/12/30 11:51:48;;;;;;;57.70;22.00;;;2.50;72.00;;;;;;5067808;28;20476;-56
2021/12/30 11:54:32;;;;;;;31.17;21.65;;;2.50;71.60;;;;;;5070550;28;20028;-56
2021/12/30 11:57:27;;;;;;;29.58;21.15;;;2.50;71.30;;;;;;5071410;28;20020;-57
2021/12/30 11:59:55;;;;;;;36.10;23.23;;;2.50;71.30;;;;;;5061045;28;20036;-56
2021/12/30 12:02:34;;;;;;;31.52;22.35;;;2.50;71.10;;;;;;5056258;28;20758;-57
2021/12/30 12:05:38;;;;;;;33.92;23.58;;;2.60;70.90;;;;;;5067390;28;20571;-57
2021/12/30 12:08:06;;;;;;;33.08;23.02;;;2.60;70.70;;;;;;5067659;28;20039;-57
2021/12/30 12:10:31;;;;;;;34.00;24.10;;;2.60;70.60;;;;;;5061891;28;20749;-57
2021/12/30 12:12:57;;;;;;;34.83;23.52;;;2.60;70.70;;;;;;5064122;28;20036;-58
2021/12/30 12:15:23;;;;;;;36.17;25.45;;;2.70;70.60;;;;;;5063611;28;20031;-57
2021/12/30 12:17:52;;;;;;;36.13;24.90;;;2.70;70.70;;;;;;5060001;28;20040;-57
2021/12/30 12:20:30;;;;;;;37.47;24.35;;;2.70;70.60;;;;;;5067897;28;20032;-57
2021/12/30 12:22:56;;;;;;;31.73;23.58;;;2.70;70.30;;;;;;5068627;28;20051;-57
2021/12/30 12:25:28;;;;;;;34.03;22.75;;;2.70;70.20;;;;;;5062638;28;20033;-57
2021/12/30 12:27:55;;;;;;;36.38;24.20;;;2.70;70.50;;;;;;5067851;28;20016;-57
2021/12/30 12:30:21;;;;;;;34.38;22.38;;;2.70;71.00;;;;;;5057760;28;20135;-58
2021/12/30 12:32:47;;;;;;;31.73;22.88;;;2.70;71.40;;;;;;5061264;28;20028;-57
2021/12/30 12:35:19;;;;;;;37.17;22.98;;;2.60;71.60;;;;;;5065317;28;20399;-56
2021/12/30 12:37:47;;;;;;;;;;;2.70;71.60;;;;;;5067429;28;20376;-57
2021/12/30 12:40:15;;;;;;;40.70;26.17;;;2.60;71.50;;;;;;5068987;28;19931;-57
2021/12/30 12:42:53;;;;;;;37.97;26.27;;;2.60;71.20;;;;;;5067756;28;20027;-56